sensor_id;sensor_type;location;lat;lon;timestamp;pressure;altitude;pressure_sealevel;temperature;humidity
67099;BME280;54288;53.046;5.668;2024-03-23T00:54:27;101088.59;;;8.58;100.00
67099;BME280;54288;53.046;5.668;2024-03-23T01:04:56;101057.31;;;8.55;100.00
67099;BME280;54288;53.046;5.668;2024-03-23T01:07:22;101066.88;;;8.57;100.00
67099;BME280;54288;53.046;5.668;2024-03-23T01:09:53;101068.59;;;8.60;100.00
67099;BME280;54288;53.046;5.668;2024-03-23T01:12:19;101062.53;;;8.55;100.00
67099;BME280;54288;53.046;5.668;2024-03-23T01:25:51;101038.22;;;8.48;100.00
67099;BME280;54288;53.046;5.668;2024-03-23T01:31:07;101039.94;;;8.49;100.00
67099;BME280;54288;53.046;5.668;2024-03-23T01:33:35;101041.66;;;8.53;100.00
67099;BME280;54288;53.046;5.668;2024-03-23T01:36:09;101030.41;;;8.48;100.00
67099;BME280;54288;53.046;5.668;2024-03-23T01:38:35;101035.59;;;8.51;100.00
67099;BME280;54288;53.046;5.668;2024-03-23T01:41:04;101025.22;;;8.45;100.00
67099;BME280;54288;53.046;5.668;2024-03-23T01:43:33;101015.69;;;8.43;100.00
67099;BME280;54288;53.046;5.668;2024-03-23T01:46:04;101023.50;;;8.41;100.00
67099;BME280;54288;53.046;5.668;2024-03-23T01:48:32;101007.88;;;8.38;100.00
67099;BME280;54288;53.046;5.668;2024-03-23T01:53:34;101012.19;;;8.42;100.00
67099;BME280;54288;53.046;5.668;2024-03-23T01:58:47;101010.47;;;8.40;100.00
67099;BME280;54288;53.046;5.668;2024-03-23T02:01:13;101004.41;;;8.39;100.00
67099;BME280;54288;53.046;5.668;2024-03-23T02:03:42;101006.13;;;8.37;100.00
67099;BME280;54288;53.046;5.668;2024-03-23T02:06:54;100994.03;;;8.32;100.00
67099;BME280;54288;53.046;5.668;2024-03-23T02:12:32;100990.53;;;8.31;100.00
67099;BME280;54288;53.046;5.668;2024-03-23T02:14:58;100990.56;;;8.30;100.00
67099;BME280;54288;53.046;5.668;2024-03-23T02:17:30;100995.81;;;8.25;100.00
67099;BME280;54288;53.046;5.668;2024-03-23T02:19:57;101000.16;;;8.26;100.00
67099;BME280;54288;53.046;5.668;2024-03-23T02:25:10;100984.53;;;8.19;100.00
67099;BME280;54288;53.046;5.668;2024-03-23T02:27:42;100975.88;;;8.15;100.00
67099;BME280;54288;53.046;5.668;2024-03-23T02:32:52;100969.81;;;8.13;100.00
67099;BME280;54288;53.046;5.668;2024-03-23T02:35:20;100968.09;;;8.12;100.00
67099;BME280;54288;53.046;5.668;2024-03-23T02:37:49;100960.25;;;8.14;100.00
67099;BME280;54288;53.046;5.668;2024-03-23T02:40:26;100973.25;;;8.15;100.00
67099;BME280;54288;53.046;5.668;2024-03-23T02:43:00;100968.09;;;8.12;100.00
67099;BME280;54288;53.046;5.668;2024-03-23T02:45:32;100956.81;;;8.09;100.00
67099;BME280;54288;53.046;5.668;2024-03-23T02:47:58;100954.22;;;8.04;100.00
67099;BME280;54288;53.046;5.668;2024-03-23T02:50:27;100954.16;;;8.10;100.00
67099;BME280;54288;53.046;5.668;2024-03-23T02:53:02;100961.16;;;8.10;100.00
67099;BME280;54288;53.046;5.668;2024-03-23T02:55:33;100956.78;;;8.10;100.00
67099;BME280;54288;53.046;5.668;2024-03-23T03:00:45;100956.84;;;8.04;100.00
67099;BME280;54288;53.046;5.668;2024-03-23T03:08:51;100943.00;;;7.96;100.00
67099;BME280;54288;53.046;5.668;2024-03-23T03:19:25;100923.09;;;7.88;100.00
67099;BME280;54288;53.046;5.668;2024-03-23T03:21:53;100920.47;;;7.89;100.00
67099;BME280;54288;53.046;5.668;2024-03-23T03:24:30;100929.13;;;7.93;100.00
67099;BME280;54288;53.046;5.668;2024-03-23T03:26:59;100916.16;;;7.85;100.00
67099;BME280;54288;53.046;5.668;2024-03-23T03:29:29;100917.03;;;7.86;100.00
67099;BME280;54288;53.046;5.668;2024-03-23T03:40:12;100916.19;;;7.82;100.00
67099;BME280;54288;53.046;5.668;2024-03-23T03:45:13;100906.66;;;7.80;100.00
67099;BME280;54288;53.046;5.668;2024-03-23T03:47:44;100903.19;;;7.76;100.00
67099;BME280;54288;53.046;5.668;2024-03-23T03:50:11;100906.66;;;7.78;100.00
67099;BME280;54288;53.046;5.668;2024-03-23T03:52:40;100900.56;;;7.76;100.00
67099;BME280;54288;53.046;5.668;2024-03-23T03:55:13;100895.34;;;7.78;100.00
67099;BME280;54288;53.046;5.668;2024-03-23T04:00:25;100890.97;;;7.81;100.00
67099;BME280;54288;53.046;5.668;2024-03-23T04:02:51;100887.53;;;7.78;100.00
67099;BME280;54288;53.046;5.668;2024-03-23T04:05:24;100884.06;;;7.79;100.00
67099;BME280;54288;53.046;5.668;2024-03-23T04:07:58;100885.81;;;7.80;100.00
67099;BME280;54288;53.046;5.668;2024-03-23T04:10:27;100884.94;;;7.76;100.00
67099;BME280;54288;53.046;5.668;2024-03-23T04:13:01;100897.97;;;7.81;100.00
67099;BME280;54288;53.046;5.668;2024-03-23T04:18:10;100884.09;;;7.77;100.00
67099;BME280;54288;53.046;5.668;2024-03-23T04:20:42;100884.94;;;7.76;100.00
67099;BME280;54288;53.046;5.668;2024-03-23T04:23:08;100889.25;;;7.80;100.00
67099;BME280;54288;53.046;5.668;2024-03-23T04:25:37;100893.63;;;7.78;100.00
67099;BME280;54288;53.046;5.668;2024-03-23T04:28:06;100884.03;;;7.82;100.00
67099;BME280;54288;53.046;5.668;2024-03-23T04:30:34;100878.00;;;7.77;100.00
67099;BME280;54288;53.046;5.668;2024-03-23T04:33:05;100874.56;;;7.73;100.00
67099;BME280;54288;53.046;5.668;2024-03-23T04:35:34;100875.44;;;7.74;100.00
67099;BME280;54288;53.046;5.668;2024-03-23T04:38:03;100863.25;;;7.73;100.00
67099;BME280;54288;53.046;5.668;2024-03-23T04:40:36;100865.00;;;7.72;100.00
67099;BME280;54288;53.046;5.668;2024-03-23T04:43:11;100865.03;;;7.71;100.00
67099;BME280;54288;53.046;5.668;2024-03-23T04:45:41;100856.31;;;7.70;100.00
67099;BME280;54288;53.046;5.668;2024-03-23T04:48:20;100858.94;;;7.70;100.00
67099;BME280;54288;53.046;5.668;2024-03-23T04:51:08;100865.03;;;7.71;100.00
67099;BME280;54288;53.046;5.668;2024-03-23T04:53:36;100870.19;;;7.75;100.00
67099;BME280;54288;53.046;5.668;2024-03-23T04:56:10;100864.97;;;7.78;100.00
67099;BME280;54288;53.046;5.668;2024-03-23T04:58:45;100849.31;;;7.75;100.00
67099;BME280;54288;53.046;5.668;2024-03-23T05:01:17;100846.72;;;7.75;100.00
67099;BME280;54288;53.046;5.668;2024-03-23T05:03:45;100850.22;;;7.73;100.00
67099;BME280;54288;53.046;5.668;2024-03-23T05:06:14;100844.16;;;7.69;100.00
67099;BME280;54288;53.046;5.668;2024-03-23T05:08:43;100846.81;;;7.68;100.00
67099;BME280;54288;53.046;5.668;2024-03-23T05:11:09;100847.72;;;7.64;100.00
67099;BME280;54288;53.046;5.668;2024-03-23T05:13:36;100848.56;;;7.64;100.00
67099;BME280;54288;53.046;5.668;2024-03-23T05:16:12;100854.66;;;7.65;100.00
67099;BME280;54288;53.046;5.668;2024-03-23T05:18:49;100842.50;;;7.65;100.00
67099;BME280;54288;53.046;5.668;2024-03-23T05:21:22;100847.66;;;7.68;100.00
67099;BME280;54288;53.046;5.668;2024-03-23T05:24:09;100850.31;;;7.65;100.00
67099;BME280;54288;53.046;5.668;2024-03-23T05:26:40;100848.56;;;7.66;100.00
67099;BME280;54288;53.046;5.668;2024-03-23T05:29:08;100853.75;;;7.66;100.00
67099;BME280;54288;53.046;5.668;2024-03-23T05:31:51;100855.47;;;7.68;100.00
67099;BME280;54288;53.046;5.668;2024-03-23T05:34:18;100856.31;;;7.70;100.00
67099;BME280;54288;53.046;5.668;2024-03-23T05:36:50;100852.03;;;7.66;100.00
67099;BME280;54288;53.046;5.668;2024-03-23T05:39:17;100851.16;;;7.69;100.00
67099;BME280;54288;53.046;5.668;2024-03-23T05:41:55;100850.25;;;7.70;100.00
67099;BME280;54288;53.046;5.668;2024-03-23T05:44:47;100851.06;;;7.76;100.00
67099;BME280;54288;53.046;5.668;2024-03-23T05:47:18;100858.88;;;7.76;100.00
67099;BME280;54288;53.046;5.668;2024-03-23T05:49:46;100851.09;;;7.75;100.00
67099;BME280;54288;53.046;5.668;2024-03-23T05:52:19;100843.22;;;7.78;100.00
67099;BME280;54288;53.046;5.668;2024-03-23T05:54:53;100848.41;;;7.82;100.00
67099;BME280;54288;53.046;5.668;2024-03-23T05:57:19;100840.53;;;7.87;100.00
67099;BME280;54288;53.046;5.668;2024-03-23T05:59:47;100849.22;;;7.87;100.00
67099;BME280;54288;53.046;5.668;2024-03-23T06:02:15;100858.78;;;7.88;100.00
67099;BME280;54288;53.046;5.668;2024-03-23T06:15:33;100842.41;;;7.73;100.00
67099;BME280;54288;53.046;5.668;2024-03-23T06:18:04;100853.66;;;7.76;100.00
67099;BME280;54288;53.046;5.668;2024-03-23T06:20:30;100841.56;;;7.72;100.00
67099;BME280;54288;53.046;5.668;2024-03-23T06:22:57;100836.34;;;7.72;100.00
67099;BME280;54288;53.046;5.668;2024-03-23T06:25:23;100839.78;;;7.77;100.00
67099;BME280;54288;53.046;5.668;2024-03-23T06:27:49;100846.53;;;7.93;100.00
67099;BME280;54288;53.046;5.668;2024-03-23T06:30:15;100844.75;;;8.00;100.00
67099;BME280;54288;53.046;5.668;2024-03-23T06:32:41;100842.13;;;8.03;100.00
67099;BME280;54288;53.046;5.668;2024-03-23T06:35:08;100840.22;;;8.18;100.00
67099;BME280;54288;53.046;5.668;2024-03-23T06:37:38;100845.34;;;8.29;100.00
67099;BME280;54288;53.046;5.668;2024-03-23T06:40:07;100853.13;;;8.33;100.00
67099;BME280;54288;53.046;5.668;2024-03-23T06:42:35;100841.06;;;8.22;100.00
67099;BME280;54288;53.046;5.668;2024-03-23T06:45:03;100839.41;;;8.10;100.00
67099;BME280;54288;53.046;5.668;2024-03-23T06:47:32;100830.75;;;8.07;100.00
67099;BME280;54288;53.046;5.668;2024-03-23T07:11:34;100825.44;;;8.17;100.00
67099;BME280;54288;53.046;5.668;2024-03-23T07:22:37;100823.41;;;8.43;100.00
67099;BME280;54288;53.046;5.668;2024-03-23T08:41:32;100782.94;;;12.09;92.52
67099;BME280;54288;53.046;5.668;2024-03-23T09:31:02;100774.88;;;11.15;90.11
67099;BME280;54288;53.046;5.668;2024-03-23T11:08:37;100797.25;;;8.49;100.00
67099;BME280;54288;53.046;5.668;2024-03-23T11:28:19;100770.66;;;8.20;100.00
67099;BME280;54288;53.046;5.668;2024-03-23T11:33:34;100776.44;;;8.43;100.00
67099;BME280;54288;53.046;5.668;2024-03-23T11:38:42;100801.53;;;8.56;100.00
67099;BME280;54288;53.046;5.668;2024-03-23T11:41:26;100769.59;;;8.36;100.00
67099;BME280;54288;53.046;5.668;2024-03-23T12:37:28;100743.97;;;9.20;100.00
67099;BME280;54288;53.046;5.668;2024-03-23T12:39:55;100742.06;;;9.29;100.00
67099;BME280;54288;53.046;5.668;2024-03-23T12:42:50;100738.28;;;9.47;100.00
67099;BME280;54288;53.046;5.668;2024-03-23T12:46:03;100731.94;;;9.60;100.00
67099;BME280;54288;53.046;5.668;2024-03-23T12:48:29;100734.25;;;9.76;100.00
67099;BME280;54288;53.046;5.668;2024-03-23T12:50:58;100724.28;;;9.95;100.00
67099;BME280;54288;53.046;5.668;2024-03-23T13:36:53;100711.22;;;12.09;99.89
67099;BME280;54288;53.046;5.668;2024-03-23T13:58:32;100697.66;;;11.93;79.45
67099;BME280;54288;53.046;5.668;2024-03-23T16:11:12;100651.94;;;10.71;86.00
67099;BME280;54288;53.046;5.668;2024-03-23T16:22:28;100633.63;;;10.71;83.58
67099;BME280;54288;53.046;5.668;2024-03-23T16:31:09;100626.34;;;10.47;83.92
67099;BME280;54288;53.046;5.668;2024-03-23T16:52:36;100615.13;;;10.42;85.21
67099;BME280;54288;53.046;5.668;2024-03-23T17:43:56;100603.31;;;9.43;100.00
67099;BME280;54288;53.046;5.668;2024-03-23T17:46:22;100605.88;;;9.47;100.00
67099;BME280;54288;53.046;5.668;2024-03-23T17:51:38;100598.31;;;9.32;100.00
67099;BME280;54288;53.046;5.668;2024-03-23T17:54:06;100607.03;;;9.33;100.00
67099;BME280;54288;53.046;5.668;2024-03-23T17:56:32;100592.19;;;9.33;100.00
67099;BME280;54288;53.046;5.668;2024-03-23T18:09:54;100584.47;;;9.27;100.00
67099;BME280;54288;53.046;5.668;2024-03-23T18:38:48;100599.31;;;8.25;100.00
67099;BME280;54288;53.046;5.668;2024-03-23T18:46:52;100594.09;;;8.25;100.00
67099;BME280;54288;53.046;5.668;2024-03-23T18:52:18;100600.09;;;8.32;100.00
67099;BME280;54288;53.046;5.668;2024-03-23T18:54:44;100583.56;;;8.30;100.00
67099;BME280;54288;53.046;5.668;2024-03-23T19:00:13;100576.63;;;8.30;100.00
67099;BME280;54288;53.046;5.668;2024-03-23T19:10:53;100563.59;;;8.30;100.00
67099;BME280;54288;53.046;5.668;2024-03-23T19:13:20;100565.28;;;8.31;100.00
67099;BME280;54288;53.046;5.668;2024-03-23T19:15:47;100562.69;;;8.31;100.00
67099;BME280;54288;53.046;5.668;2024-03-23T19:18:32;100570.44;;;8.36;100.00
67099;BME280;54288;53.046;5.668;2024-03-23T19:21:23;100570.50;;;8.31;100.00
67099;BME280;54288;53.046;5.668;2024-03-23T19:40:36;100557.81;;;8.07;100.00
67099;BME280;54288;53.046;5.668;2024-03-23T19:48:47;100542.16;;;8.09;100.00
67099;BME280;54288;53.046;5.668;2024-03-23T21:14:37;100467.94;;;8.31;100.00
67099;BME280;54288;53.046;5.668;2024-03-23T22:11:30;100383.13;;;8.06;100.00
67099;BME280;54288;53.046;5.668;2024-03-23T22:19:32;100382.41;;;7.98;100.00
67099;BME280;54288;53.046;5.668;2024-03-23T23:24:39;100267.94;;;7.84;100.00
67099;BME280;54288;53.046;5.668;2024-03-23T23:27:06;100267.13;;;7.82;100.00
67099;BME280;54288;53.046;5.668;2024-03-23T23:29:53;100253.28;;;7.79;100.00
67099;BME280;54288;53.046;5.668;2024-03-23T23:32:19;100261.19;;;7.73;100.00
67099;BME280;54288;53.046;5.668;2024-03-23T23:34:46;100261.31;;;7.67;100.00
67099;BME280;54288;53.046;5.668;2024-03-23T23:37:13;100250.06;;;7.65;100.00
67099;BME280;54288;53.046;5.668;2024-03-23T23:42:44;100250.97;;;7.64;100.00
67099;BME280;54288;53.046;5.668;2024-03-23T23:47:54;100233.53;;;7.66;100.00
67099;BME280;54288;53.046;5.668;2024-03-23T23:50:20;100230.03;;;7.67;100.00
67099;BME280;54288;53.046;5.668;2024-03-23T23:52:46;100239.53;;;7.72;100.00
67099;BME280;54288;53.046;5.668;2024-03-23T23:55:12;100230.03;;;7.68;100.00
67099;BME280;54288;53.046;5.668;2024-03-23T23:57:39;100216.16;;;7.68;100.00
